Time;durP1;ratioP1;P1;durP2;ratioP2;P2;SDS_P1;SDS_P2;PMS_P1;PMS_P2;Temp;Humidity;BMP_temperature;BMP_pressure;BME280_temperature;BME280_humidity;BME280_pressure;Samples;Min_cycle;Max_cycle;Signal;HPM_P1;HPM_P2
2021/07/31 00:00:05;;;;;;;4.03;1.60;;;18.60;86.30;;;;;;5060011;28;20041;-81
2021/07/31 00:02:30;;;;;;;4.80;1.95;;;18.60;86.30;;;;;;5064207;28;20020;-83
2021/07/31 00:04:56;;;;;;;5.13;1.58;;;18.80;86.70;;;;;;5072989;28;20040;-82
2021/07/31 00:07:22;;;;;;;5.38;1.60;;;18.50;86.70;;;;;;5065935;28;20052;-80
2021/07/31 00:09:47;;;;;;;5.18;1.55;;;18.50;86.70;;;;;;5069354;28;20269;-81
2021/07/31 00:12:13;;;;;;;5.68;1.40;;;19.10;87.30;;;;;;5065919;28;20121;-80
2021/07/31 00:14:38;;;;;;;4.65;1.52;;;18.50;86.90;;;;;;5081020;28;20048;-80
2021/07/31 00:17:06;;;;;;;4.07;1.60;;;18.70;86.80;;;;;;5067538;28;20029;-80
2021/07/31 00:19:33;;;;;;;4.15;1.50;;;18.50;86.80;;;;;;5066210;28;20063;-82
2021/07/31 00:21:59;;;;;;;3.60;1.30;;;18.40;86.70;;;;;;5060676;28;20025;-80
2021/07/31 00:24:24;;;;;;;5.10;2.38;;;18.40;86.60;;;;;;5069491;28;20374;-81
2021/07/31 00:26:50;;;;;;;5.63;1.45;;;19.10;86.90;;;;;;5072049;28;20024;-80
2021/07/31 00:29:15;;;;;;;3.47;1.50;;;18.40;86.80;;;;;;5075968;28;20041;-80
2021/07/31 00:31:41;;;;;;;2.83;1.35;;;18.30;87.10;;;;;;5067058;28;20048;-81
2021/07/31 00:34:07;;;;;;;3.85;1.40;;;18.70;87.80;;;;;;5063314;28;20033;-82
2021/07/31 00:36:32;;;;;;;2.55;1.25;;;18.30;87.40;;;;;;5071358;28;20024;-79
2021/07/31 00:38:58;;;;;;;9.95;2.88;;;18.30;87.70;;;;;;5067676;28;20025;-80
2021/07/31 00:41:24;;;;;;;4.07;1.95;;;18.20;87.70;;;;;;5063930;28;20451;-81
2021/07/31 00:43:49;;;;;;;7.40;1.70;;;18.20;88.20;;;;;;5070862;28;20046;-81
2021/07/31 00:46:16;;;;;;;4.50;1.50;;;18.20;88.00;;;;;;5065715;28;20021;-82
2021/07/31 00:48:42;;;;;;;4.03;1.65;;;18.30;87.80;;;;;;5069706;28;20025;-82
2021/07/31 00:51:08;;;;;;;7.78;1.45;;;18.20;87.70;;;;;;5059603;28;20094;-82
2021/07/31 00:53:33;;;;;;;3.25;1.63;;;18.30;88.00;;;;;;5066588;28;20036;-83
2021/07/31 00:55:59;;;;;;;3.92;1.58;;;18.10;87.70;;;;;;5068762;28;20029;-83
2021/07/31 00:58:27;;;;;;;5.07;1.60;;;18.10;88.30;;;;;;5061091;28;20032;-80
2021/07/31 01:00:52;;;;;;;5.22;1.70;;;18.20;88.40;;;;;;5062572;28;20110;-80
2021/07/31 01:03:18;;;;;;;3.28;1.42;;;18.20;88.80;;;;;;5069013;28;20028;-79
2021/07/31 01:05:44;;;;;;;4.72;1.63;;;18.00;88.60;;;;;;5065976;28;20029;-82
2021/07/31 01:08:10;;;;;;;5.07;1.70;;;18.00;88.70;;;;;;5064665;28;20074;-81
2021/07/31 01:10:35;;;;;;;3.38;1.40;;;18.10;88.90;;;;;;5064808;28;20055;-81
2021/07/31 01:13:02;;;;;;;7.45;3.70;;;17.90;88.90;;;;;;5058640;28;20078;-79
2021/07/31 01:15:28;;;;;;;3.75;1.55;;;17.90;89.50;;;;;;5063692;28;20028;-81
2021/07/31 01:17:54;;;;;;;4.85;1.70;;;18.40;89.70;;;;;;5070695;28;20028;-81
2021/07/31 01:20:19;;;;;;;5.40;2.13;;;17.80;89.50;;;;;;5067667;28;20036;-80
2021/07/31 01:22:45;;;;;;;6.82;2.00;;;17.80;89.60;;;;;;5075172;28;20025;-81
2021/07/31 01:25:11;;;;;;;4.63;1.98;;;17.80;89.90;;;;;;5062819;28;20028;-81
2021/07/31 01:27:39;;;;;;;4.40;2.10;;;18.60;90.30;;;;;;5067960;28;20688;-81
2021/07/31 01:30:05;;;;;;;5.70;1.95;;;18.40;90.10;;;;;;5062480;28;20073;-81
2021/07/31 01:32:31;;;;;;;4.95;2.05;;;17.70;90.00;;;;;;5064015;28;20025;-82
2021/07/31 01:34:57;;;;;;;4.32;1.90;;;17.70;90.00;;;;;;5069710;28;21318;-79
2021/07/31 01:37:23;;;;;;;4.60;2.00;;;17.70;90.10;;;;;;5078439;28;20044;-85
2021/07/31 01:39:48;;;;;;;3.97;1.67;;;17.60;90.10;;;;;;5093725;28;20036;-81
2021/07/31 01:42:15;;;;;;;5.88;2.05;;;17.80;90.20;;;;;;5085002;28;20106;-78
2021/07/31 01:44:41;;;;;;;4.75;1.67;;;17.60;90.20;;;;;;5066830;28;20028;-79
2021/07/31 01:47:07;;;;;;;5.55;1.63;;;;;;;;;;5064492;28;20113;-82
2021/07/31 01:49:32;;;;;;;4.68;1.70;;;17.60;90.10;;;;;;5065317;28;20459;-81
2021/07/31 01:51:58;;;;;;;2.85;1.70;;;18.40;90.50;;;;;;5073569;28;20127;-80
2021/07/31 01:54:24;;;;;;;5.10;2.05;;;17.60;90.40;;;;;;5067707;28;20028;-79
2021/07/31 01:56:49;;;;;;;4.07;2.20;;;17.80;90.50;;;;;;5072778;28;20016;-81
2021/07/31 01:59:15;;;;;;;4.50;2.25;;;17.50;90.50;;;;;;5064196;28;20025;-79
2021/07/31 02:01:41;;;;;;;4.80;2.42;;;17.70;90.60;;;;;;5062724;28;20391;-81
2021/07/31 02:04:07;;;;;;;5.22;2.15;;;17.60;90.70;;;;;;5065352;28;20051;-80
2021/07/31 02:06:32;;;;;;;4.32;1.70;;;18.10;90.80;;;;;;5066552;28;20067;-80
2021/07/31 02:08:58;;;;;;;4.13;2.00;;;17.50;90.70;;;;;;5061206;28;20111;-81
2021/07/31 02:11:24;;;;;;;3.47;1.92;;;17.60;90.80;;;;;;5064386;28;20029;-81
2021/07/31 02:13:49;;;;;;;4.20;1.60;;;17.40;90.80;;;;;;5062868;28;20028;-80
2021/07/31 02:16:25;;;;;;;4.68;1.90;;;17.50;90.70;;;;;;5066326;28;20060;-80
2021/07/31 02:18:51;;;;;;;4.07;2.13;;;17.50;90.80;;;;;;5069695;28;20497;-79
2021/07/31 02:21:17;;;;;;;5.03;2.95;;;19.30;91.20;;;;;;5062724;28;20032;-81
2021/07/31 02:23:43;;;;;;;4.97;1.70;;;17.30;90.80;;;;;;5059786;28;20040;-81
2021/07/31 02:26:09;;;;;;;4.00;1.40;;;17.40;90.90;;;;;;5066480;28;20025;-80
2021/07/31 02:28:34;;;;;;;5.50;1.60;;;17.50;90.90;;;;;;5066121;28;20054;-80
2021/07/31 02:31:00;;;;;;;2.95;1.50;;;17.30;91.00;;;;;;5058365;28;20037;-80
2021/07/31 02:33:25;;;;;;;7.75;1.75;;;17.60;91.20;;;;;;5070859;28;20021;-82
2021/07/31 02:35:51;;;;;;;5.82;1.77;;;17.20;91.00;;;;;;5067467;28;20032;-79
2021/07/31 02:38:17;;;;;;;5.93;1.85;;;17.50;91.30;;;;;;5061321;28;20059;-84
2021/07/31 02:40:42;;;;;;;2.65;1.90;;;17.20;91.40;;;;;;5061340;28;20029;-84
2021/07/31 02:43:08;;;;;;;6.68;2.10;;;17.90;91.60;;;;;;5067126;28;20036;-83
2021/07/31 02:45:36;;;;;;;5.78;2.10;;;17.20;91.50;;;;;;5069171;28;20052;-80
2021/07/31 02:48:03;;;;;;;8.30;2.65;;;17.10;91.60;;;;;;5060264;28;20042;-82
2021/07/31 02:50:29;;;;;;;4.22;1.70;;;17.10;91.80;;;;;;5069309;28;20032;-80
2021/07/31 02:52:54;;;;;;;4.15;1.90;;;17.10;91.50;;;;;;5066193;28;20033;-79
2021/07/31 02:55:20;;;;;;;4.78;1.70;;;17.90;91.80;;;;;;5067001;28;20032;-81
2021/07/31 02:57:45;;;;;;;3.60;1.60;;;17.00;91.80;;;;;;5063472;28;20039;-78
2021/07/31 03:00:11;;;;;;;5.90;1.77;;;18.30;92.20;;;;;;5069222;28;20052;-80
2021/07/31 03:02:37;;;;;;;19.02;3.88;;;17.00;91.90;;;;;;5064712;28;20021;-81
2021/07/31 03:05:03;;;;;;;6.65;2.20;;;16.90;91.90;;;;;;5064540;28;20049;-81
2021/07/31 03:07:29;;;;;;;5.82;2.10;;;16.90;92.00;;;;;;5069552;28;20684;-80
2021/07/31 03:09:54;;;;;;;5.10;1.83;;;17.00;92.00;;;;;;5063801;28;20063;-81
2021/07/31 03:12:20;;;;;;;4.03;1.98;;;16.90;92.10;;;;;;5067156;28;20025;-81
2021/07/31 03:14:47;;;;;;;5.50;2.00;;;18.70;92.60;;;;;;5060879;28;20024;-82
2021/07/31 03:17:13;;;;;;;4.35;1.85;;;17.20;92.30;;;;;;5067444;28;20040;-83
2021/07/31 03:19:39;;;;;;;4.88;1.48;;;17.30;92.40;;;;;;5060039;28;20032;-79
2021/07/31 03:22:05;;;;;;;4.35;1.73;;;16.90;92.50;;;;;;5070471;28;20032;-81
2021/07/31 03:24:31;;;;;;;4.28;1.65;;;16.80;92.60;;;;;;5066017;28;20575;-81
2021/07/31 03:26:57;;;;;;;3.38;1.63;;;16.80;92.70;;;;;;5061248;28;20150;-80
2021/07/31 03:29:23;;;;;;;5.85;2.03;;;16.80;93.00;;;;;;5063045;28;20055;-81
2021/07/31 03:31:51;;;;;;;4.68;1.65;;;17.40;93.20;;;;;;5060950;28;20044;-79
2021/07/31 03:34:17;;;;;;;4.30;1.63;;;16.70;92.90;;;;;;5060596;28;20032;-82
2021/07/31 03:36:43;;;;;;;3.63;1.70;;;17.40;93.10;;;;;;5059223;28;20035;-80
2021/07/31 03:39:11;;;;;;;6.03;2.67;;;17.10;93.00;;;;;;5056478;28;20037;-80
2021/07/31 03:41:37;;;;;;;4.95;1.70;;;16.70;93.10;;;;;;5071347;28;20111;-81
2021/07/31 03:44:03;;;;;;;2.40;1.50;;;16.70;93.10;;;;;;5067737;28;20075;-82
2021/07/31 03:46:28;;;;;;;5.13;1.65;;;16.70;93.10;;;;;;5060139;28;20024;-79
2021/07/31 03:48:54;;;;;;;6.70;1.90;;;16.60;93.10;;;;;;5057630;28;20028;-80
2021/07/31 03:51:19;;;;;;;6.53;1.77;;;16.60;93.20;;;;;;5060125;28;20044;-80
2021/07/31 03:53:45;;;;;;;4.25;1.55;;;16.80;93.30;;;;;;5064198;28;20020;-80
2021/07/31 03:56:11;;;;;;;6.40;1.80;;;16.60;93.40;;;;;;5059123;28;20055;-81
2021/07/31 03:58:36;;;;;;;6.63;1.95;;;16.60;93.50;;;;;;5064691;28;20431;-81
2021/07/31 04:01:02;;;;;;;5.28;2.05;;;16.60;93.50;;;;;;5059520;28;20031;-83
2021/07/31 04:03:27;;;;;;;4.55;1.60;;;16.50;93.50;;;;;;5060431;28;20045;-81
2021/07/31 04:05:53;;;;;;;4.40;1.33;;;16.50;93.50;;;;;;5061619;28;20032;-78
2021/07/31 04:08:19;;;;;;;3.88;1.52;;;16.40;93.70;;;;;;5059393;28;20127;-81
2021/07/31 04:10:44;;;;;;;6.53;1.92;;;16.30;93.80;;;;;;5058604;28;20021;-80
2021/07/31 04:13:10;;;;;;;5.10;1.90;;;16.30;93.90;;;;;;5070538;28;20028;-79
2021/07/31 04:15:35;;;;;;;3.50;1.88;;;16.40;94.00;;;;;;5073660;28;20059;-80
2021/07/31 04:18:01;;;;;;;5.45;1.60;;;16.30;93.80;;;;;;5065961;28;20032;-82
2021/07/31 04:20:26;;;;;;;4.13;1.58;;;16.90;94.00;;;;;;5071492;28;20377;-80
2021/07/31 04:22:52;;;;;;;5.90;1.90;;;17.40;94.20;;;;;;5072896;28;20052;-81
2021/07/31 04:25:18;;;;;;;4.60;1.70;;;16.40;93.90;;;;;;5070535;28;20025;-80
2021/07/31 04:27:43;;;;;;;2.92;1.58;;;17.60;94.40;;;;;;5075254;28;20019;-83
2021/07/31 04:30:09;;;;;;;3.42;1.45;;;16.20;94.00;;;;;;5083184;28;20017;-81
2021/07/31 04:32:35;;;;;;;4.22;2.20;;;16.30;94.20;;;;;;5090735;28;20037;-82
2021/07/31 04:35:02;;;;;;;3.63;1.60;;;18.10;94.60;;;;;;5069621;28;20797;-81
2021/07/31 04:37:28;;;;;;;4.72;1.45;;;16.30;94.10;;;;;;5071521;28;20535;-81
2021/07/31 04:39:53;;;;;;;6.07;2.45;;;16.80;94.30;;;;;;5071037;28;20087;-78
2021/07/31 04:42:19;;;;;;;6.07;1.52;;;16.30;94.20;;;;;;5058193;28;20559;-80
2021/07/31 04:44:44;;;;;;;14.40;2.15;;;16.30;94.20;;;;;;5059579;28;20059;-82
2021/07/31 04:47:10;;;;;;;3.83;1.80;;;17.20;94.50;;;;;;5060553;28;20094;-80
2021/07/31 04:49:36;;;;;;;4.90;1.80;;;16.30;94.40;;;;;;5067985;28;20411;-80
2021/07/31 04:52:05;;;;;;;3.40;1.88;;;16.30;94.70;;;;;;5066315;28;20028;-81
2021/07/31 04:54:30;;;;;;;4.13;1.98;;;16.30;95.00;;;;;;5061846;28;20029;-80
2021/07/31 04:56:56;;;;;;;5.38;1.52;;;16.10;95.30;;;;;;5069553;28;20054;-80
2021/07/31 04:59:22;;;;;;;5.40;1.90;;;16.20;95.70;;;;;;5072123;28;20370;-81
2021/07/31 05:01:47;;;;;;;4.88;1.50;;;17.40;95.90;;;;;;5067213;28;20029;-80
2021/07/31 05:04:13;;;;;;;7.22;1.83;;;16.20;95.80;;;;;;5059890;28;20143;-81
2021/07/31 05:06:38;;;;;;;6.35;1.55;;;16.00;96.10;;;;;;5056880;28;20036;-77
2021/07/31 05:09:06;;;;;;;4.38;1.70;;;16.00;96.20;;;;;;5057570;28;20058;-83
2021/07/31 05:11:31;;;;;;;5.65;2.00;;;15.80;96.40;;;;;;5063035;28;20529;-82
2021/07/31 05:13:57;;;;;;;7.32;1.85;;;15.80;96.70;;;;;;5060201;28;20029;-80
2021/07/31 05:16:26;;;;;;;2.88;1.55;;;;;;;;;;5058308;28;20135;-84
2021/07/31 05:18:51;;;;;;;4.38;1.70;;;15.70;97.20;;;;;;5054984;28;20056;-79
2021/07/31 05:21:17;;;;;;;4.68;1.80;;;15.80;97.20;;;;;;5058011;28;20063;-79
2021/07/31 05:23:42;;;;;;;4.70;1.80;;;15.70;97.40;;;;;;5059471;28;20094;-82
2021/07/31 05:26:09;;;;;;;6.28;1.50;;;15.80;97.30;;;;;;5062904;28;20035;-81
2021/07/31 05:28:35;;;;;;;7.45;1.80;;;15.90;97.40;;;;;;5058297;28;20029;-82
2021/07/31 05:31:00;;;;;;;5.60;1.92;;;16.70;97.50;;;;;;5060745;28;20546;-82
2021/07/31 05:33:26;;;;;;;4.97;1.67;;;16.10;97.50;;;;;;5053197;28;20037;-80
2021/07/31 05:35:53;;;;;;;3.28;1.67;;;17.40;95.20;;;;;;5059237;28;20028;-82
2021/07/31 05:38:18;;;;;;;2.70;1.38;;;17.40;95.40;;;;;;5060322;28;20106;-82
2021/07/31 05:40:44;;;;;;;5.50;1.60;;;18.40;93.20;;;;;;5054444;28;20021;-80
2021/07/31 05:43:09;;;;;;;3.65;1.30;;;19.40;91.40;;;;;;5049665;28;20624;-81
2021/07/31 05:45:35;;;;;;;6.97;1.77;;;19.50;91.10;;;;;;5052265;28;20020;-82
2021/07/31 05:48:01;;;;;;;6.20;1.38;;;20.00;89.40;;;;;;5057335;28;20037;-80
2021/07/31 05:50:26;;;;;;;3.67;2.10;;;20.10;89.40;;;;;;5054287;28;20040;-80
2021/07/31 05:52:52;;;;;;;3.85;1.60;;;20.20;88.80;;;;;;5052568;28;20047;-81
2021/07/31 05:55:18;;;;;;;2.33;1.05;;;19.90;89.10;;;;;;5055733;28;20055;-80
2021/07/31 05:57:43;;;;;;;3.95;1.42;;;19.90;88.10;;;;;;5057764;28;20448;-80
2021/07/31 06:00:09;;;;;;;3.97;1.38;;;21.90;90.40;;;;;;5060910;28;20090;-80
2021/07/31 06:02:35;;;;;;;3.13;1.85;;;19.70;89.50;;;;;;5058860;28;20060;-82
2021/07/31 06:05:01;;;;;;;4.40;1.50;;;20.00;88.70;;;;;;5054446;28;20517;-81
2021/07/31 06:07:26;;;;;;;5.35;1.50;;;19.90;88.70;;;;;;5065817;28;20040;-80
2021/07/31 06:09:53;;;;;;;5.20;1.40;;;21.20;89.40;;;;;;5066504;28;20044;-81
2021/07/31 06:12:21;;;;;;;3.78;1.50;;;19.70;89.90;;;;;;5059798;28;20025;-81
2021/07/31 06:14:47;;;;;;;3.17;1.30;;;19.60;89.80;;;;;;5060020;28;20029;-80
2021/07/31 06:17:13;;;;;;;4.75;1.60;;;19.50;89.40;;;;;;5063958;28;20032;-82
2021/07/31 06:19:39;;;;;;;3.70;1.52;;;20.00;90.50;;;;;;5060443;28;20525;-81
2021/07/31 06:22:05;;;;;;;7.25;2.10;;;19.10;90.50;;;;;;5066192;28;20028;-80
2021/07/31 06:24:31;;;;;;;6.97;1.77;;;18.80;91.10;;;;;;5068945;28;20112;-81
2021/07/31 06:26:56;;;;;;;5.28;1.70;;;18.70;91.50;;;;;;5071945;28;20031;-79
2021/07/31 06:29:22;;;;;;;4.88;2.03;;;18.70;91.80;;;;;;5065570;28;20036;-82
2021/07/31 06:31:49;;;;;;;4.75;1.38;;;18.70;91.90;;;;;;5067792;28;20522;-81
2021/07/31 06:34:15;;;;;;;4.07;1.30;;;18.80;91.40;;;;;;5079632;28;20120;-82
2021/07/31 06:36:42;;;;;;;3.28;1.40;;;18.90;91.20;;;;;;5077179;28;20119;-79
2021/07/31 06:39:08;;;;;;;9.77;2.00;;;18.80;91.40;;;;;;5075578;28;20024;-83
2021/07/31 06:41:34;;;;;;;3.88;1.52;;;18.80;91.80;;;;;;5071527;28;20462;-79
2021/07/31 06:43:59;;;;;;;4.68;1.70;;;19.10;91.70;;;;;;5065463;28;20021;-79
2021/07/31 06:46:26;;;;;;;3.95;1.60;;;19.30;91.10;;;;;;5074229;28;20084;-81
2021/07/31 06:48:53;;;;;;;5.05;1.65;;;19.20;91.50;;;;;;5072245;28;20023;-79
2021/07/31 06:51:20;;;;;;;6.88;1.38;;;20.40;91.60;;;;;;5073092;28;20033;-77
2021/07/31 06:53:49;;;;;;;3.92;1.33;;;19.00;91.40;;;;;;5061595;28;20052;-82
2021/07/31 06:56:16;;;;;;;6.00;1.45;;;19.10;91.30;;;;;;5075956;28;20036;-81
2021/07/31 06:58:42;;;;;;;5.32;1.77;;;;;;;;;;5066031;28;20051;-80
2021/07/31 07:01:14;;;;;;;7.65;1.77;;;;;;;;;;5063431;28;20032;-78
2021/07/31 07:03:41;;;;;;;3.78;1.25;;;19.20;90.90;;;;;;5052839;28;20520;-80
2021/07/31 07:06:08;;;;;;;3.53;1.60;;;19.20;91.10;;;;;;5050726;28;20425;-79
2021/07/31 07:08:34;;;;;;;5.00;1.88;;;19.20;91.30;;;;;;5054293;28;20037;-81
2021/07/31 07:11:01;;;;;;;6.50;1.83;;;19.50;91.10;;;;;;5055931;28;20029;-80
2021/07/31 07:13:26;;;;;;;4.57;1.48;;;19.50;90.90;;;;;;5062793;28;20135;-80
2021/07/31 07:15:52;;;;;;;5.50;1.50;;;19.40;90.60;;;;;;5059093;28;20028;-78
2021/07/31 07:18:18;;;;;;;6.38;1.48;;;19.50;90.50;;;;;;5066567;28;20031;-78
2021/07/31 07:20:45;;;;;;;2.25;1.52;;;19.30;90.70;;;;;;5075162;28;20033;-81
2021/07/31 07:23:10;;;;;;;4.82;1.35;;;19.30;90.80;;;;;;5082535;28;20017;-78
2021/07/31 07:25:36;;;;;;;4.75;1.58;;;19.40;90.80;;;;;;5067631;28;20755;-80
2021/07/31 07:28:02;;;;;;;3.05;1.45;;;19.80;90.70;;;;;;5066026;28;20025;-80
2021/07/31 07:30:28;;;;;;;3.75;1.30;;;19.80;89.90;;;;;;5060010;28;20031;-81
2021/07/31 07:32:54;;;;;;;2.67;1.40;;;20.10;89.30;;;;;;5057401;28;20058;-79
2021/07/31 07:35:20;;;;;;;2.67;1.38;;;20.10;89.30;;;;;;5057664;28;20119;-78
2021/07/31 07:37:46;;;;;;;5.53;1.70;;;20.10;89.70;;;;;;5056141;28;20078;-78
2021/07/31 07:40:12;;;;;;;3.45;1.45;;;20.30;88.50;;;;;;5057518;28;20025;-79
2021/07/31 07:42:38;;;;;;;2.72;1.15;;;20.50;87.40;;;;;;5059789;28;20518;-78
2021/07/31 07:45:08;;;;;;;2.78;1.10;;;20.90;85.50;;;;;;5058286;28;20187;-80
2021/07/31 07:47:34;;;;;;;4.57;1.50;;;20.60;85.60;;;;;;5058761;28;20024;-78
2021/07/31 07:50:00;;;;;;;3.40;1.42;;;20.70;85.30;;;;;;5055906;28;20033;-79
2021/07/31 07:52:26;;;;;;;5.95;1.73;;;20.70;85.30;;;;;;5064308;28;20039;-80
2021/07/31 07:54:52;;;;;;;4.10;1.40;;;20.60;85.70;;;;;;5069419;28;20028;-81
2021/07/31 07:57:20;;;;;;;2.63;1.33;;;20.60;86.00;;;;;;5068605;28;20025;-82
2021/07/31 07:59:45;;;;;;;3.22;1.30;;;20.90;86.10;;;;;;5069086;28;20312;-81
2021/07/31 08:02:11;;;;;;;2.45;1.20;;;21.60;85.90;;;;;;5060293;28;20033;-82
2021/07/31 08:04:37;;;;;;;3.33;1.20;;;20.50;86.00;;;;;;5058586;28;20551;-83
2021/07/31 08:07:03;;;;;;;4.30;1.30;;;20.40;86.00;;;;;;5063967;28;20047;-82
2021/07/31 08:09:28;;;;;;;3.35;1.33;;;20.50;85.60;;;;;;5065622;28;20922;-82
2021/07/31 08:11:54;;;;;;;2.80;1.30;;;20.60;84.90;;;;;;5069242;28;20511;-81
2021/07/31 08:14:19;;;;;;;3.60;1.30;;;20.90;85.30;;;;;;5079606;28;20029;-82
2021/07/31 08:16:45;;;;;;;3.10;1.40;;;20.80;84.80;;;;;;5069792;28;20132;-83
2021/07/31 08:19:11;;;;;;;4.43;1.42;;;20.90;85.10;;;;;;5080821;28;20557;-81
2021/07/31 08:21:39;;;;;;;4.15;2.00;;;20.90;84.80;;;;;;5074076;28;20025;-81
2021/07/31 08:24:06;;;;;;;2.95;1.38;;;21.00;85.20;;;;;;5072580;28;20090;-82
2021/07/31 08:26:32;;;;;;;3.63;1.30;;;21.20;84.60;;;;;;5068385;28;20051;-83
2021/07/31 08:28:58;;;;;;;4.15;1.38;;;21.20;84.00;;;;;;5066984;28;20037;-79
2021/07/31 08:31:24;;;;;;;3.70;1.60;;;21.00;84.70;;;;;;5068405;28;20029;-83
2021/07/31 08:33:50;;;;;;;3.72;1.58;;;21.60;85.70;;;;;;5067063;28;20060;-80
2021/07/31 08:36:15;;;;;;;3.75;1.30;;;21.00;85.60;;;;;;5071430;28;20112;-84
2021/07/31 08:38:41;;;;;;;4.20;1.60;;;21.00;84.50;;;;;;5056835;28;20143;-82
2021/07/31 08:41:07;;;;;;;4.22;2.00;;;21.20;84.90;;;;;;5063400;28;20032;-81
2021/07/31 08:43:33;;;;;;;5.25;2.03;;;21.10;85.10;;;;;;5061224;28;20507;-83
2021/07/31 08:46:05;;;;;;;3.20;1.40;;;21.20;83.40;;;;;;5064048;28;20024;-83
2021/07/31 08:48:31;;;;;;;5.95;1.40;;;21.20;82.90;;;;;;5067384;28;20044;-81
2021/07/31 08:50:59;;;;;;;3.80;1.80;;;21.50;83.20;;;;;;5071509;28;20028;-82
2021/07/31 08:53:28;;;;;;;4.80;1.40;;;21.50;83.10;;;;;;5087993;28;20025;-80
2021/07/31 08:55:54;;;;;;;3.47;1.57;;;21.50;82.30;;;;;;5063595;28;20054;-82
2021/07/31 08:58:23;;;;;;;4.53;1.60;;;21.50;82.50;;;;;;5066892;28;20020;-80
2021/07/31 09:00:52;;;;;;;3.85;1.70;;;21.60;82.70;;;;;;5074230;28;20386;-82
2021/07/31 09:03:18;;;;;;;1.88;1.23;;;21.50;83.70;;;;;;5062945;28;20352;-80
2021/07/31 09:05:43;;;;;;;3.83;1.60;;;21.70;83.00;;;;;;5061283;28;20036;-79
2021/07/31 09:08:09;;;;;;;4.40;1.55;;;21.80;82.70;;;;;;5076799;28;20498;-81
2021/07/31 09:10:38;;;;;;;3.45;1.30;;;22.00;81.20;;;;;;5066552;28;20029;-80
2021/07/31 09:13:09;;;;;;;2.97;1.40;;;22.10;80.70;;;;;;5076611;28;20028;-82
2021/07/31 09:15:42;;;;;;;3.75;2.10;;;22.10;79.60;;;;;;5072951;28;20079;-82
2021/07/31 09:18:43;;;;;;;1.98;1.15;;;23.20;80.00;;;;;;5065608;28;20037;-81
2021/07/31 09:21:13;;;;;;;2.45;1.45;;;22.60;78.20;;;;;;5052273;28;20029;-81
2021/07/31 09:23:52;;;;;;;1.88;1.17;;;22.80;77.30;;;;;;5061250;28;20034;-79
2021/07/31 09:26:23;;;;;;;3.05;1.25;;;22.80;76.80;;;;;;5073358;28;20478;-82
2021/07/31 09:29:03;;;;;;;3.08;1.40;;;22.80;76.50;;;;;;5071934;28;20061;-81
2021/07/31 09:31:30;;;;;;;4.47;1.40;;;23.00;76.10;;;;;;5066911;28;20059;-80
2021/07/31 09:33:59;;;;;;;3.50;1.45;;;22.90;76.20;;;;;;5073077;28;20024;-78
2021/07/31 09:36:44;;;;;;;3.50;1.33;;;22.80;75.80;;;;;;5075577;28;20036;-81
2021/07/31 09:39:11;;;;;;;2.15;1.20;;;22.70;75.70;;;;;;5078810;28;20044;-80
2021/07/31 09:41:38;;;;;;;3.90;1.48;;;22.50;76.40;;;;;;5080109;28;20028;-79
2021/07/31 09:44:17;;;;;;;4.50;1.05;;;22.80;77.00;;;;;;5076880;28;20024;-80
2021/07/31 09:46:47;;;;;;;4.80;1.35;;;22.40;76.90;;;;;;5081745;28;20046;-83
2021/07/31 09:49:15;;;;;;;6.22;1.80;;;22.60;76.40;;;;;;5077113;28;21266;-79
2021/07/31 09:51:46;;;;;;;3.53;1.33;;;22.50;76.50;;;;;;5078305;28;20016;-81
2021/07/31 09:54:15;;;;;;;3.28;1.35;;;22.80;76.80;;;;;;5078678;28;20036;-81
2021/07/31 09:56:52;;;;;;;3.08;1.48;;;23.00;76.10;;;;;;5078873;28;20031;-81
2021/07/31 09:59:19;;;;;;;4.38;1.50;;;23.00;75.30;;;;;;5076032;28;20029;-81
2021/07/31 10:02:00;;;;;;;4.75;1.40;;;23.20;75.70;;;;;;5079893;28;20127;-79
2021/07/31 10:04:26;;;;;;;3.45;1.15;;;23.20;75.20;;;;;;5077215;28;20017;-82
2021/07/31 10:06:52;;;;;;;3.58;1.42;;;23.20;74.90;;;;;;5075155;28;20028;-79
2021/07/31 10:09:18;;;;;;;3.42;1.52;;;23.20;75.10;;;;;;5077426;28;20040;-81
2021/07/31 10:11:44;;;;;;;2.55;1.33;;;23.30;75.10;;;;;;5076962;28;20028;-81
2021/07/31 10:14:11;;;;;;;2.53;1.20;;;23.50;74.30;;;;;;5076590;28;20056;-81
2021/07/31 10:16:38;;;;;;;4.07;1.88;;;23.40;74.50;;;;;;5073183;28;20103;-80
2021/07/31 10:19:08;;;;;;;5.68;1.73;;;23.30;74.60;;;;;;5071853;28;20370;-81
2021/07/31 10:21:35;;;;;;;;;;;23.40;76.00;;;;;;5086876;28;20025;-80
2021/07/31 10:24:08;;;;;;;4.82;1.48;;;23.30;75.20;;;;;;5082966;28;19905;-80
2021/07/31 10:26:36;;;;;;;3.40;1.70;;;23.10;76.00;;;;;;5076914;28;20136;-80
2021/07/31 10:29:26;;;;;;;2.78;1.38;;;23.10;76.00;;;;;;5071973;28;20039;-80
2021/07/31 10:31:54;;;;;;;2.13;1.30;;;22.90;75.90;;;;;;5080269;28;20020;-79
2021/07/31 10:34:57;;;;;;;3.83;1.48;;;22.70;76.70;;;;;;5075716;28;20052;-80
2021/07/31 10:37:29;;;;;;;6.13;1.45;;;22.30;77.50;;;;;;5073814;28;20020;-80
2021/07/31 10:40:32;;;;;;;4.65;1.40;;;22.30;78.30;;;;;;5075586;28;20040;-82
2021/07/31 10:42:57;;;;;;;3.17;1.45;;;22.20;78.90;;;;;;5075539;28;20044;-81
2021/07/31 10:45:29;;;;;;;3.33;1.67;;;22.40;78.40;;;;;;5076828;28;20028;-78
2021/07/31 10:47:59;;;;;;;5.50;1.90;;;22.60;77.90;;;;;;5071653;28;20048;-79
2021/07/31 10:50:29;;;;;;;4.25;1.88;;;22.90;77.40;;;;;;5077896;28;20021;-81
2021/07/31 10:53:03;;;;;;;4.78;1.65;;;23.20;76.60;;;;;;5074715;28;20028;-80
2021/07/31 10:55:35;;;;;;;4.43;1.75;;;23.40;75.60;;;;;;5069109;28;20028;-80
2021/07/31 10:58:11;;;;;;;3.63;1.75;;;23.30;75.00;;;;;;5068334;28;20494;-79
2021/07/31 11:00:38;;;;;;;4.78;1.58;;;23.50;75.00;;;;;;5062606;28;20047;-78
2021/07/31 11:03:25;;;;;;;2.22;1.52;;;23.60;73.60;;;;;;5059068;28;20032;-77
2021/07/31 11:06:00;;;;;;;3.25;1.63;;;23.80;73.70;;;;;;5069125;28;20028;-77
2021/07/31 11:08:26;;;;;;;4.20;1.50;;;23.90;73.60;;;;;;5067491;28;20039;-80
2021/07/31 11:10:56;;;;;;;2.80;1.45;;;23.90;73.20;;;;;;5062643;28;20024;-77
2021/07/31 11:13:22;;;;;;;2.70;1.30;;;24.40;71.10;;;;;;5065729;28;20026;-79
2021/07/31 11:15:56;;;;;;;4.10;2.15;;;24.00;70.90;;;;;;5063091;28;20039;-79
2021/07/31 11:18:47;;;;;;;3.22;1.85;;;23.80;72.20;;;;;;5057858;28;20112;-80
2021/07/31 11:21:27;;;;;;;3.50;1.75;;;23.70;72.00;;;;;;5066074;28;20135;-79
2021/07/31 11:23:52;;;;;;;;;;;23.50;73.30;;;;;;5065405;28;20398;-81
2021/07/31 11:26:36;;;;;;;3.17;1.60;;;23.30;73.30;;;;;;5068404;28;19908;-79
2021/07/31 11:29:07;;;;;;;2.80;1.50;;;23.30;73.60;;;;;;5060518;28;20115;-80
2021/07/31 11:31:33;;;;;;;3.03;1.45;;;23.30;73.50;;;;;;5064627;28;20028;-79
2021/07/31 11:34:08;;;;;;;5.75;1.85;;;23.30;73.40;;;;;;5068268;28;20124;-80
2021/07/31 11:36:37;;;;;;;3.45;1.30;;;23.30;73.80;;;;;;5067770;28;20024;-79
2021/07/31 11:39:04;;;;;;;2.33;1.30;;;23.20;73.20;;;;;;5060752;28;20039;-79
2021/07/31 11:41:40;;;;;;;3.92;2.38;;;23.20;73.10;;;;;;5069067;28;20055;-78
2021/07/31 11:44:07;;;;;;;5.32;2.85;;;23.40;72.80;;;;;;5065197;28;20064;-80
2021/07/31 11:46:43;;;;;;;4.03;2.17;;;23.50;73.20;;;;;;5064953;28;20035;-79
2021/07/31 11:49:12;;;;;;;3.70;1.60;;;22.80;72.30;;;;;;5061070;28;20036;-79
2021/07/31 11:51:45;;;;;;;4.93;1.55;;;23.60;73.30;;;;;;5067340;28;20089;-77
2021/07/31 11:54:12;;;;;;;3.45;1.70;;;23.80;72.30;;;;;;5073222;28;20028;-79
2021/07/31 11:56:39;;;;;;;4.57;1.58;;;24.20;71.80;;;;;;5070945;28;20024;-80
2021/07/31 11:59:06;;;;;;;4.82;1.90;;;24.60;71.00;;;;;;5067344;28;20102;-81
2021/07/31 12:01:33;;;;;;;3.42;1.90;;;24.70;69.60;;;;;;5073613;28;20024;-77
2021/07/31 12:03:59;;;;;;;3.10;1.73;;;25.00;69.90;;;;;;5063574;28;20071;-79
2021/07/31 12:06:29;;;;;;;3.60;2.20;;;25.10;69.00;;;;;;5062056;28;20495;-79
2021/07/31 12:09:00;;;;;;;3.78;1.83;;;25.20;68.60;;;;;;5064581;28;20394;-82
2021/07/31 12:11:42;;;;;;;3.30;1.42;;;25.30;68.50;;;;;;5073756;28;20085;-81
2021/07/31 12:14:32;;;;;;;4.35;1.63;;;25.50;67.40;;;;;;5069024;28;20406;-83
2021/07/31 12:17:23;;;;;;;3.60;1.88;;;25.30;67.40;;;;;;5069212;28;20048;-81
2021/07/31 12:19:57;;;;;;;2.95;1.30;;;25.00;67.40;;;;;;5083640;28;20058;-81
2021/07/31 12:22:27;;;;;;;5.43;1.65;;;24.70;68.80;;;;;;5075276;28;20112;-78
2021/07/31 12:25:09;;;;;;;;;;;24.70;68.90;;;;;;5076488;28;20035;-79
2021/07/31 12:27:50;;;;;;;2.50;1.63;;;24.60;69.50;;;;;;5075714;28;19962;-81
2021/07/31 12:30:40;;;;;;;2.85;1.50;;;24.60;68.90;;;;;;5074112;28;20059;-80
2021/07/31 12:33:06;;;;;;;;;;;24.80;68.70;;;;;;5077544;28;20031;-82
2021/07/31 12:35:35;;;;;;;2.50;1.30;;;24.70;68.90;;;;;;5063968;28;19912;-81
2021/07/31 12:38:01;;;;;;;;;;;24.80;68.40;;;;;;5078391;28;20025;-82
2021/07/31 12:40:28;;;;;;;4.18;2.00;;;24.50;68.60;;;;;;5077757;28;19944;-82
2021/07/31 12:42:53;;;;;;;3.80;1.63;;;24.40;68.70;;;;;;5080713;28;20037;-80
2021/07/31 12:45:20;;;;;;;3.53;1.67;;;24.40;69.00;;;;;;5079383;28;20039;-83
2021/07/31 12:47:45;;;;;;;2.65;1.40;;;24.40;68.50;;;;;;5074917;28;20032;-81
2021/07/31 12:50:11;;;;;;;1.95;1.27;;;24.40;68.30;;;;;;5069310;28;20044;-81
2021/07/31 12:52:36;;;;;;;4.05;1.90;;;24.50;68.10;;;;;;5068845;28;20058;-81